createdAt,value
2018-12-11T13:25:19.633Z,3.90
2018-12-11T13:26:17.438Z,3.77
2018-12-11T13:27:06.486Z,4.30
2018-12-11T13:27:44.238Z,4.00
2018-12-11T13:28:22.752Z,4.03
2018-12-11T13:29:00.146Z,3.83
2018-12-11T13:29:37.422Z,4.10
2018-12-11T13:30:28.463Z,3.70
2018-12-11T13:31:18.575Z,4.13
2018-12-11T13:32:10.928Z,3.77
2018-12-11T13:33:02.807Z,3.60
2018-12-11T13:33:55.453Z,3.90
2018-12-11T13:34:43.995Z,3.57
2018-12-11T13:35:20.804Z,3.70
2018-12-11T13:35:57.825Z,3.90
2018-12-11T13:36:34.729Z,3.90
2018-12-11T13:37:16.136Z,4.33
2018-12-11T13:38:15.923Z,3.40
2018-12-11T13:39:05.752Z,3.50
2018-12-11T13:40:00.860Z,3.37
2018-12-11T13:40:59.453Z,3.27
2018-12-11T13:41:47.714Z,3.77
2018-12-11T13:42:40.941Z,3.50
2018-12-11T13:43:18.169Z,3.60
2018-12-11T13:44:09.547Z,4.63
2018-12-11T13:44:59.618Z,3.93
2018-12-11T13:45:48.577Z,4.30
2018-12-11T13:46:42.524Z,2.80
2018-12-11T13:47:29.216Z,3.63
2018-12-11T13:48:23.391Z,3.50
2018-12-11T13:49:13.094Z,3.97
2018-12-11T13:50:02.820Z,3.23
2018-12-11T13:50:40.755Z,3.40
2018-12-11T13:51:22.284Z,4.03
2018-12-11T13:52:08.543Z,4.10
2018-12-11T13:52:56.371Z,3.80
2018-12-11T13:53:44.844Z,3.23
2018-12-11T13:54:34.289Z,3.30
2018-12-11T13:55:24.840Z,3.80
2018-12-11T13:56:16.680Z,3.60
2018-12-11T13:56:59.433Z,3.87
2018-12-11T13:57:48.838Z,3.77
2018-12-11T13:58:38.523Z,3.60
2018-12-11T13:59:29.425Z,3.50
2018-12-11T14:00:23.837Z,3.40
2018-12-11T14:01:13.386Z,3.20
2018-12-11T14:01:59.845Z,3.00
2018-12-11T14:02:52.181Z,2.93
2018-12-11T14:03:41.687Z,3.50
2018-12-11T14:04:31.236Z,3.80
2018-12-11T14:05:12.115Z,4.10
2018-12-11T14:06:00.040Z,3.17
2018-12-11T14:06:50.717Z,3.33
2018-12-11T14:07:38.415Z,4.00
2018-12-11T14:08:28.435Z,3.63
2018-12-11T14:09:18.330Z,3.60
2018-12-11T14:10:08.144Z,3.80
2018-12-11T14:10:59.691Z,3.50
2018-12-11T14:11:57.422Z,3.63
2018-12-11T14:12:48.593Z,3.80
2018-12-11T14:13:42.227Z,3.57
2018-12-11T14:14:26.300Z,3.77
2018-12-11T14:15:03.782Z,3.83
2018-12-11T14:15:41.112Z,3.80
2018-12-11T14:16:18.371Z,3.43
2018-12-11T14:16:55.464Z,3.60
2018-12-11T14:17:32.746Z,3.40
2018-12-11T14:18:10.857Z,2.93
2018-12-11T14:18:56.876Z,3.47
2018-12-11T14:19:51.304Z,3.50
2018-12-11T14:20:40.666Z,3.67
2018-12-11T14:21:33.927Z,3.50
2018-12-11T14:22:25.317Z,3.13
2018-12-11T14:23:18.306Z,5.70
2018-12-11T14:23:55.564Z,3.60
2018-12-11T14:24:39.527Z,3.90
2018-12-11T14:25:27.276Z,4.17
2018-12-11T14:26:16.535Z,3.77
2018-12-11T14:27:08.265Z,4.10
2018-12-11T14:27:54.411Z,3.97
2018-12-11T14:28:42.822Z,3.60
2018-12-11T14:29:29.281Z,3.40
2018-12-11T14:30:10.887Z,4.43
2018-12-11T14:30:48.175Z,3.77
2018-12-11T14:31:36.972Z,4.30
2018-12-11T14:32:27.917Z,4.80
2018-12-11T14:33:21.042Z,4.43
2018-12-11T14:34:09.551Z,3.77
2018-12-11T14:34:58.968Z,3.80
2018-12-11T14:35:48.122Z,4.47
2018-12-11T14:36:25.197Z,3.80
2018-12-11T14:37:02.398Z,4.50
2018-12-11T14:37:39.485Z,5.17
2018-12-11T14:38:16.414Z,4.77
2018-12-11T14:38:53.357Z,4.20
2018-12-11T14:39:31.321Z,4.57
2018-12-11T14:40:08.668Z,4.20
2018-12-11T14:40:45.431Z,4.37
2018-12-11T14:41:22.326Z,4.63
2018-12-11T14:41:59.271Z,4.67
2018-12-11T14:42:36.141Z,4.40
2018-12-11T14:43:17.338Z,4.33
2018-12-11T14:43:56.893Z,4.63
2018-12-11T14:44:35.169Z,4.53
2018-12-11T14:45:15.472Z,3.77
2018-12-11T14:45:54.852Z,4.43
2018-12-11T14:46:32.731Z,4.70
2018-12-11T14:47:11.818Z,4.73
2018-12-11T14:47:51.766Z,4.20
2018-12-11T14:48:31.738Z,3.97
2018-12-11T14:49:10.070Z,4.70
2018-12-11T14:49:49.064Z,4.27
2018-12-11T14:50:26.815Z,4.43
2018-12-11T14:51:04.504Z,5.10
2018-12-11T14:51:42.601Z,4.30
2018-12-11T14:52:20.074Z,5.50
2018-12-11T14:52:57.493Z,4.67
2018-12-11T14:53:37.141Z,4.90
2018-12-11T14:54:14.339Z,4.63
2018-12-11T14:54:57.372Z,4.80
2018-12-11T14:55:34.483Z,5.80
2018-12-11T14:56:11.906Z,5.27
2018-12-11T14:56:48.908Z,5.53
2018-12-11T14:57:30.968Z,4.97
2018-12-11T14:58:05.184Z,5.50
2018-12-11T14:58:42.133Z,4.90
2018-12-11T14:59:18.999Z,5.70
2018-12-11T14:59:55.857Z,5.47
2018-12-11T15:00:32.958Z,6.10
2018-12-11T15:01:11.279Z,5.00
2018-12-11T15:01:54.093Z,4.83
2018-12-11T15:04:09.942Z,5.57
2018-12-11T15:04:54.224Z,5.43
2018-12-11T15:05:42.857Z,5.87
2018-12-11T15:06:26.952Z,5.80
2018-12-11T15:07:10.686Z,6.50
2018-12-11T15:07:57.081Z,4.90
2018-12-11T15:08:48.193Z,5.90
2018-12-11T15:09:39.462Z,5.13
2018-12-11T15:11:15.648Z,5.23
2018-12-11T15:11:52.821Z,6.00
2018-12-11T15:12:29.663Z,5.40
2018-12-11T15:13:06.569Z,5.50
2018-12-11T15:13:43.940Z,5.80
2018-12-11T15:14:23.777Z,4.70
2018-12-11T15:15:06.342Z,5.00
2018-12-11T15:15:46.841Z,5.67
2018-12-11T15:16:24.333Z,6.40
2018-12-11T15:17:01.808Z,4.73
2018-12-11T15:17:38.622Z,5.50
2018-12-11T15:18:15.433Z,5.60
2018-12-11T15:18:54.404Z,5.57
2018-12-11T15:19:32.281Z,6.00
2018-12-11T15:20:10.672Z,5.63
2018-12-11T15:20:47.828Z,4.87
2018-12-11T15:21:24.812Z,4.63
2018-12-11T15:22:01.646Z,6.00
2018-12-11T15:22:39.200Z,4.83
2018-12-11T15:23:16.205Z,5.00
2018-12-11T15:23:53.152Z,4.90
2018-12-11T15:24:30.165Z,5.10
2018-12-11T15:25:07.325Z,4.80
2018-12-11T15:25:44.566Z,5.40
2018-12-11T15:26:21.477Z,5.77
2018-12-11T15:26:58.478Z,4.83
2018-12-11T15:27:35.430Z,6.30
2018-12-11T15:28:12.252Z,6.53
2018-12-11T15:28:49.075Z,6.30
2018-12-11T15:29:25.919Z,6.23
2018-12-11T15:30:02.724Z,5.70
2018-12-11T15:30:44.140Z,5.90
2018-12-11T15:31:20.989Z,6.30
2018-12-11T15:31:58.748Z,5.90
2018-12-11T15:32:35.619Z,6.27
2018-12-11T15:33:12.488Z,5.87
2018-12-11T15:33:49.485Z,6.53
2018-12-11T15:34:26.652Z,6.10
2018-12-11T15:35:03.847Z,7.17
2018-12-11T15:35:40.792Z,6.17
2018-12-11T15:36:18.417Z,7.33
2018-12-11T15:36:55.279Z,5.07
2018-12-11T15:37:32.137Z,6.63
2018-12-11T15:38:09.026Z,5.73
2018-12-11T15:38:45.849Z,6.17
2018-12-11T15:39:22.749Z,6.57
2018-12-11T15:39:59.597Z,5.67
2018-12-11T15:40:36.423Z,6.30
2018-12-11T15:41:13.270Z,5.90
2018-12-11T15:41:50.113Z,6.03
2018-12-11T15:42:26.835Z,6.40
2018-12-11T15:43:03.852Z,6.20
2018-12-11T15:43:40.870Z,6.10
2018-12-11T15:44:19.002Z,6.03
2018-12-11T15:44:55.950Z,5.60
2018-12-11T15:45:33.065Z,5.67
2018-12-11T15:46:10.948Z,5.70
2018-12-11T15:46:48.597Z,5.97
2018-12-11T15:47:32.182Z,5.70
2018-12-11T15:48:14.625Z,5.63
2018-12-11T15:48:54.236Z,6.10
2018-12-11T15:49:33.293Z,6.10
2018-12-11T15:50:17.013Z,6.57
2018-12-11T15:50:58.541Z,5.20
2018-12-11T15:51:45.335Z,7.30
2018-12-11T15:52:24.167Z,5.50
2018-12-11T15:53:05.358Z,5.27
2018-12-11T15:53:51.347Z,6.10
2018-12-11T15:54:35.574Z,6.03
2018-12-11T15:55:17.407Z,5.77
2018-12-11T15:56:00.439Z,5.80
2018-12-11T15:56:47.389Z,5.80
2018-12-11T15:57:31.045Z,5.80
2018-12-11T15:58:11.553Z,5.93
2018-12-11T15:58:50.211Z,6.00
2018-12-11T15:59:31.571Z,6.07
2018-12-11T16:00:10.693Z,6.10
2018-12-11T16:00:54.608Z,5.50
2018-12-11T16:01:32.399Z,5.50
2018-12-11T16:02:10.369Z,6.13
2018-12-11T16:02:51.423Z,5.47
2018-12-11T16:03:31.720Z,6.67
2018-12-11T16:04:14.721Z,6.20
2018-12-11T16:04:52.839Z,5.30
2018-12-11T16:05:36.217Z,6.50
2018-12-11T16:06:15.872Z,6.35
2018-12-11T16:06:55.117Z,5.30
2018-12-11T16:07:35.353Z,6.17
2018-12-11T16:11:31.242Z,6.37
2018-12-11T16:12:09.403Z,7.40
2018-12-11T16:12:49.700Z,6.07
2018-12-11T16:13:29.450Z,6.50
2018-12-11T16:14:12.689Z,6.70
2018-12-11T16:14:52.875Z,6.47
2018-12-11T16:15:30.507Z,6.90
2018-12-11T16:16:08.918Z,6.40
2018-12-11T16:16:49.289Z,6.20
2018-12-11T16:17:27.962Z,6.00
2018-12-11T16:18:08.694Z,6.43
2018-12-11T16:18:49.706Z,6.47
2018-12-11T16:19:32.608Z,7.13
2018-12-11T16:21:12.679Z,6.80
2018-12-11T16:21:50.075Z,6.00
2018-12-11T16:22:27.350Z,6.60
2018-12-11T16:23:04.675Z,7.20
2018-12-11T16:23:49.599Z,6.77
2018-12-11T16:24:27.132Z,6.50
2018-12-11T16:25:04.338Z,7.20
2018-12-11T16:25:42.602Z,6.20
2018-12-11T16:26:24.437Z,7.13
2018-12-11T16:27:01.458Z,7.03
2018-12-11T16:27:39.120Z,7.17
2018-12-11T16:28:17.149Z,6.30
2018-12-11T16:28:59.114Z,7.30
2018-12-11T16:29:36.866Z,7.60
2018-12-11T16:30:16.477Z,7.60
2018-12-11T16:30:54.244Z,7.30
2018-12-11T16:31:36.578Z,7.63
2018-12-11T16:32:13.983Z,6.80
2018-12-11T16:32:57.716Z,6.13
2018-12-11T16:33:39.847Z,5.70
2018-12-11T16:34:23.739Z,6.20
2018-12-11T16:35:07.584Z,6.77
2018-12-11T16:35:45.403Z,6.87
2018-12-11T16:36:22.899Z,7.40
2018-12-11T16:37:01.722Z,7.30
2018-12-11T16:37:41.037Z,6.13
2018-12-11T16:38:19.041Z,6.23
2018-12-11T16:39:00.355Z,6.23
2018-12-11T16:39:43.815Z,6.83
2018-12-11T16:40:26.302Z,6.27
2018-12-11T16:41:04.608Z,7.33
2018-12-11T16:41:43.893Z,7.10
2018-12-11T16:42:24.779Z,6.50
2018-12-11T16:43:01.771Z,6.07
2018-12-11T16:43:39.033Z,7.10
2018-12-11T16:44:15.882Z,6.90
2018-12-11T16:44:53.610Z,6.23
2018-12-11T16:45:30.541Z,6.63
2018-12-11T16:46:07.470Z,6.03
2018-12-11T16:46:45.053Z,7.20
2018-12-11T16:47:21.913Z,6.60
2018-12-11T16:48:06.968Z,6.43
2018-12-11T16:48:45.432Z,6.70
2018-12-11T16:49:24.041Z,7.27
2018-12-11T16:50:18.103Z,7.30
2018-12-11T16:53:53.296Z,6.70
2018-12-11T16:54:30.166Z,6.00
2018-12-11T16:55:07.124Z,7.50
2018-12-11T16:55:43.952Z,6.63
2018-12-11T16:56:20.841Z,6.50
2018-12-11T16:56:57.808Z,6.90
2018-12-11T16:57:34.595Z,6.73
2018-12-11T16:58:11.547Z,7.07
2018-12-11T16:58:48.460Z,6.50
2018-12-11T16:59:25.407Z,6.87
2018-12-11T17:00:02.285Z,6.00
2018-12-11T17:00:39.325Z,6.30
2018-12-11T17:01:16.352Z,6.37
2018-12-11T17:01:53.180Z,6.10
2018-12-11T17:02:30.091Z,6.70
2018-12-11T17:03:07.049Z,6.60
2018-12-11T17:03:44.118Z,5.97
2018-12-11T17:04:20.926Z,6.23
2018-12-11T17:04:57.853Z,7.53
2018-12-11T17:05:34.824Z,5.60
2018-12-11T17:06:11.716Z,6.67
2018-12-11T17:06:48.576Z,6.73
2018-12-11T17:07:25.666Z,5.93
2018-12-11T17:08:02.597Z,6.10
2018-12-11T17:08:39.445Z,6.80
2018-12-11T17:09:19.580Z,6.10
2018-12-11T17:09:56.413Z,6.03
2018-12-11T17:10:33.424Z,6.50
2018-12-11T17:11:10.248Z,6.70
2018-12-11T17:11:47.022Z,6.43
2018-12-11T17:12:23.815Z,6.30
2018-12-11T17:13:00.725Z,6.10
2018-12-11T17:13:37.574Z,6.30
2018-12-11T17:14:15.378Z,5.93
2018-12-11T17:14:58.644Z,6.63
2018-12-11T17:15:35.861Z,7.40
2018-12-11T17:16:12.886Z,6.07
2018-12-11T17:16:49.680Z,6.40
2018-12-11T17:17:26.649Z,6.63
2018-12-11T17:18:03.507Z,6.83
2018-12-11T17:18:41.829Z,5.90
2018-12-11T17:19:18.856Z,7.20
2018-12-11T17:19:55.824Z,6.03
2018-12-11T17:20:32.941Z,6.80
2018-12-11T17:21:09.909Z,6.30
2018-12-11T17:21:47.087Z,5.70
2018-12-11T17:22:24.218Z,6.37
2018-12-11T17:23:01.211Z,6.03
2018-12-11T17:23:37.979Z,6.67
2018-12-11T17:24:14.848Z,5.83
2018-12-11T17:24:51.708Z,7.43
2018-12-11T17:25:28.598Z,6.00
2018-12-11T17:26:06.481Z,6.47
2018-12-11T17:26:43.328Z,6.67
2018-12-11T17:27:20.152Z,6.67
2018-12-11T17:27:56.968Z,6.50
2018-12-11T17:28:33.802Z,6.43
2018-12-11T17:29:10.601Z,6.47
2018-12-11T17:29:47.449Z,6.73
2018-12-11T17:30:24.217Z,6.47
2018-12-11T17:31:01.168Z,6.33
2018-12-11T17:31:38.269Z,6.70
2018-12-11T17:32:15.111Z,6.30
2018-12-11T17:32:52.065Z,6.30
2018-12-11T17:33:28.920Z,6.40
2018-12-11T17:34:05.933Z,6.53
2018-12-11T17:34:42.890Z,6.27
2018-12-11T17:35:19.858Z,6.27
2018-12-11T17:35:56.783Z,6.57
2018-12-11T17:36:33.642Z,6.00
2018-12-11T17:37:10.698Z,6.50
2018-12-11T17:37:47.504Z,7.00
2018-12-11T17:38:24.397Z,6.57
2018-12-11T17:39:01.113Z,6.47
2018-12-11T17:39:38.106Z,6.13
2018-12-11T17:40:14.913Z,6.33
2018-12-11T17:40:51.695Z,6.07
2018-12-11T17:41:28.588Z,6.30
2018-12-11T17:42:05.464Z,6.13
2018-12-11T17:42:42.336Z,5.83
2018-12-11T17:43:19.217Z,6.30
2018-12-11T17:43:56.017Z,6.60
2018-12-11T17:44:33.968Z,6.70
2018-12-11T17:45:11.641Z,6.73
2018-12-11T17:45:48.578Z,6.03
2018-12-11T17:46:25.444Z,5.50
2018-12-11T17:47:02.294Z,6.50
2018-12-11T17:47:39.103Z,6.37
2018-12-11T17:48:16.049Z,6.30
2018-12-11T17:48:52.939Z,6.30
2018-12-11T17:49:29.700Z,6.23
2018-12-11T17:50:07.276Z,6.23
2018-12-11T17:50:44.681Z,5.50
2018-12-11T17:51:21.523Z,6.20
2018-12-11T17:51:58.385Z,6.27
2018-12-11T17:52:35.352Z,5.87
2018-12-11T17:53:12.239Z,7.00
2018-12-11T17:53:49.243Z,5.83
2018-12-11T17:54:26.084Z,6.83
2018-12-11T17:55:02.934Z,7.03
2018-12-11T17:55:39.649Z,6.27
2018-12-11T17:56:16.443Z,6.47
2018-12-11T17:56:53.745Z,6.40
2018-12-11T17:57:30.600Z,6.43
2018-12-11T17:58:07.493Z,6.63
2018-12-11T17:58:44.455Z,6.13
2018-12-11T17:59:21.379Z,6.10
2018-12-11T17:59:58.289Z,5.90
2018-12-11T18:00:35.164Z,6.40
2018-12-11T18:01:12.281Z,6.67
2018-12-11T18:01:52.296Z,5.87
2018-12-11T18:02:33.600Z,6.20
2018-12-11T18:03:10.546Z,6.50
2018-12-11T18:03:47.385Z,6.43
2018-12-11T18:04:24.265Z,6.40
2018-12-11T18:05:01.105Z,6.77
2018-12-11T18:05:38.153Z,5.63
2018-12-11T18:06:14.977Z,6.37
2018-12-11T18:06:51.855Z,5.50
2018-12-11T18:07:28.849Z,6.13
2018-12-11T18:08:05.693Z,6.50
2018-12-11T18:08:42.577Z,6.70
2018-12-11T18:09:19.476Z,6.47
2018-12-11T18:09:56.296Z,6.43
2018-12-11T18:10:33.124Z,6.10
2018-12-11T18:11:09.923Z,6.43
2018-12-11T18:11:46.810Z,5.67
2018-12-11T18:12:23.625Z,6.10
2018-12-11T18:13:00.495Z,6.33
2018-12-11T18:13:37.312Z,6.33
2018-12-11T18:14:14.287Z,6.30
2018-12-11T18:14:51.384Z,5.93
2018-12-11T18:15:28.361Z,5.57
2018-12-11T18:16:05.166Z,6.03
2018-12-11T18:16:42.059Z,6.80
2018-12-11T18:17:18.856Z,4.93
2018-12-11T18:17:57.714Z,6.70
2018-12-11T18:18:34.481Z,6.27
2018-12-11T18:19:11.416Z,6.20
2018-12-11T18:19:48.270Z,5.70
2018-12-11T18:20:25.297Z,6.23
2018-12-11T18:21:02.034Z,7.00
2018-12-11T18:21:38.965Z,6.07
2018-12-11T18:22:15.812Z,5.00
2018-12-11T18:22:52.841Z,6.03
2018-12-11T18:23:29.934Z,6.43
2018-12-11T18:24:06.799Z,7.77
2018-12-11T18:24:43.694Z,5.50
2018-12-11T18:25:20.554Z,7.10
2018-12-11T18:25:57.358Z,5.60
2018-12-11T18:26:34.233Z,5.83
2018-12-11T18:27:11.226Z,5.90
2018-12-11T18:27:48.116Z,5.60
2018-12-11T18:28:24.974Z,6.50
2018-12-11T18:29:01.904Z,6.53
2018-12-11T18:29:38.687Z,6.10
2018-12-11T18:30:15.437Z,5.90
2018-12-11T18:30:52.324Z,6.43
2018-12-11T18:31:29.077Z,6.50
2018-12-11T18:32:05.981Z,6.23
2018-12-11T18:32:44.601Z,6.93
2018-12-11T18:33:21.536Z,6.63
2018-12-11T18:33:58.673Z,7.07
2018-12-11T18:34:39.454Z,6.47
2018-12-11T18:35:18.488Z,5.73
2018-12-11T18:35:55.522Z,5.70
2018-12-11T18:36:32.365Z,5.23
2018-12-11T18:37:09.412Z,6.27
2018-12-11T18:37:46.227Z,5.90
2018-12-11T18:38:23.254Z,6.73
2018-12-11T18:39:00.093Z,5.87
2018-12-11T18:39:36.995Z,6.13
2018-12-11T18:40:14.019Z,5.80
2018-12-11T18:40:50.881Z,6.80
2018-12-11T18:41:27.761Z,7.10
2018-12-11T18:42:04.730Z,5.97
2018-12-11T18:42:41.543Z,6.50
2018-12-11T18:43:19.209Z,6.40
2018-12-11T18:43:56.026Z,6.50
2018-12-11T18:44:32.908Z,6.53
2018-12-11T18:45:10.442Z,6.47
2018-12-11T18:45:47.293Z,7.07
2018-12-11T18:46:24.113Z,6.03
2018-12-11T18:47:00.876Z,6.00
2018-12-11T18:47:37.783Z,5.57
2018-12-11T18:48:14.633Z,5.93
2018-12-11T18:48:51.637Z,6.80
2018-12-11T18:49:28.494Z,6.33
2018-12-11T18:50:05.395Z,7.33
2018-12-11T18:50:42.165Z,7.10
2018-12-11T18:51:19.030Z,5.93
2018-12-11T18:51:55.959Z,7.00
2018-12-11T18:52:33.018Z,6.00
2018-12-11T18:53:09.873Z,6.57
2018-12-11T18:53:46.748Z,6.60
2018-12-11T18:54:23.600Z,5.90
2018-12-11T18:55:00.389Z,6.00
2018-12-11T18:55:37.510Z,6.47
2018-12-11T18:56:14.300Z,7.17
2018-12-11T18:56:51.105Z,6.90
2018-12-11T18:57:27.862Z,6.17
2018-12-11T18:58:04.915Z,6.10
2018-12-11T18:58:42.837Z,5.93
2018-12-11T18:59:19.722Z,6.17
2018-12-11T18:59:56.589Z,6.50
2018-12-11T19:00:33.478Z,6.90
2018-12-11T19:01:10.634Z,6.00
2018-12-11T19:01:47.844Z,5.80
2018-12-11T19:02:24.721Z,6.30
2018-12-11T19:03:01.595Z,6.80
2018-12-11T19:03:38.765Z,5.90
2018-12-11T19:04:15.552Z,5.67
2018-12-11T19:04:52.532Z,6.20
2018-12-11T19:05:29.442Z,5.73
2018-12-11T19:06:06.277Z,5.63
2018-12-11T19:06:43.085Z,6.00
2018-12-11T19:07:19.999Z,5.83
2018-12-11T19:07:56.872Z,6.67
2018-12-11T19:08:33.818Z,5.97
2018-12-11T19:09:10.762Z,6.40
2018-12-11T19:09:47.494Z,6.43
2018-12-11T19:10:24.500Z,6.70
2018-12-11T19:11:01.453Z,6.43
2018-12-11T19:11:38.329Z,6.40
2018-12-11T19:12:15.270Z,6.60
2018-12-11T19:12:52.038Z,6.90
2018-12-11T19:13:28.932Z,7.47
2018-12-11T19:14:05.802Z,6.37
2018-12-11T19:14:42.736Z,6.43
2018-12-11T19:15:19.641Z,6.70
2018-12-11T19:15:56.656Z,7.60
2018-12-11T19:16:33.498Z,6.13
2018-12-11T19:17:10.226Z,6.60
2018-12-11T19:17:47.190Z,5.73
2018-12-11T19:18:24.109Z,6.57
2018-12-11T19:19:01.074Z,6.43
2018-12-11T19:19:37.986Z,6.60
2018-12-11T19:20:14.737Z,6.63
2018-12-11T19:20:51.685Z,6.43
2018-12-11T19:21:28.474Z,6.70
2018-12-11T19:22:05.297Z,6.27
2018-12-11T19:22:42.275Z,6.60
2018-12-11T19:23:42.786Z,6.00
2018-12-11T19:24:31.408Z,6.87
2018-12-11T19:25:10.042Z,6.57
2018-12-11T19:25:47.026Z,5.90
2018-12-11T19:26:23.954Z,6.20
2018-12-11T19:27:00.770Z,6.57
2018-12-11T19:27:37.765Z,6.77
2018-12-11T19:28:14.603Z,7.43
2018-12-11T19:28:51.425Z,7.47
2018-12-11T19:29:28.285Z,7.20
2018-12-11T19:30:05.217Z,6.40
2018-12-11T19:30:42.085Z,6.77
2018-12-11T19:31:18.809Z,6.63
2018-12-11T19:31:55.692Z,6.67
2018-12-11T19:32:32.558Z,6.57
2018-12-11T19:33:09.496Z,6.37
2018-12-11T19:33:46.358Z,6.43
2018-12-11T19:34:23.151Z,6.70
2018-12-11T19:34:59.949Z,6.60
2018-12-11T19:35:36.635Z,7.50
2018-12-11T19:36:13.454Z,6.63
2018-12-11T19:36:50.598Z,7.60
2018-12-11T19:37:27.479Z,7.07
2018-12-11T19:38:04.437Z,6.80
2018-12-11T19:38:41.222Z,5.80
2018-12-11T19:39:18.062Z,5.97
2018-12-11T19:39:54.957Z,6.40
2018-12-11T19:40:31.713Z,7.07
2018-12-11T19:41:08.468Z,7.10
2018-12-11T19:41:45.358Z,6.27
2018-12-11T19:42:22.250Z,6.70
2018-12-11T19:42:59.125Z,6.40
2018-12-11T19:43:36.009Z,6.67
2018-12-11T19:44:12.841Z,7.43
2018-12-11T19:44:49.788Z,6.73
2018-12-11T19:45:26.686Z,6.63
2018-12-11T19:46:03.637Z,7.93
2018-12-11T19:46:40.668Z,6.07
2018-12-11T19:47:17.429Z,6.93
2018-12-11T19:47:54.273Z,6.60
2018-12-11T19:48:31.171Z,7.40
2018-12-11T19:49:08.253Z,6.23
2018-12-11T19:49:45.229Z,6.70
2018-12-11T19:50:22.072Z,6.97
2018-12-11T19:50:58.865Z,7.57
2018-12-11T19:51:35.689Z,6.83
2018-12-11T19:52:12.652Z,7.33
2018-12-11T19:52:49.451Z,6.60
2018-12-11T19:53:26.361Z,6.27
2018-12-11T19:54:03.356Z,5.67
2018-12-11T19:54:40.200Z,7.20
2018-12-11T19:55:17.140Z,7.07
2018-12-11T19:55:53.952Z,7.40
2018-12-11T19:56:31.885Z,7.40
2018-12-11T19:57:08.841Z,6.73
2018-12-11T19:57:45.601Z,6.63
2018-12-11T19:58:23.048Z,6.77
2018-12-11T19:58:59.969Z,6.77
2018-12-11T19:59:36.828Z,6.20
2018-12-11T20:00:13.713Z,6.90
2018-12-11T20:00:50.613Z,7.27
2018-12-11T20:01:27.729Z,6.13
2018-12-11T20:02:04.575Z,6.90
2018-12-11T20:02:41.473Z,6.43
2018-12-11T20:03:18.356Z,6.23
2018-12-11T20:03:55.189Z,5.57
2018-12-11T20:04:31.938Z,6.67
2018-12-11T20:05:09.068Z,6.67
2018-12-11T20:05:46.110Z,6.97
2018-12-11T20:06:22.897Z,7.03
2018-12-11T20:06:59.953Z,6.23
2018-12-11T20:07:36.892Z,6.63
2018-12-11T20:08:13.786Z,7.13
2018-12-11T20:08:50.652Z,6.43
2018-12-11T20:09:27.405Z,6.03
2018-12-11T20:10:08.916Z,6.57
2018-12-11T20:10:48.023Z,6.00
2018-12-11T20:11:25.093Z,6.80
2018-12-11T20:12:01.989Z,6.23
2018-12-11T20:12:38.738Z,6.70
2018-12-11T20:13:15.718Z,6.83
2018-12-11T20:13:52.512Z,6.17
2018-12-11T20:14:29.184Z,7.00
2018-12-11T20:15:07.077Z,7.33
2018-12-11T20:15:43.937Z,7.03
2018-12-11T20:16:20.867Z,5.90
2018-12-11T20:16:57.872Z,6.37
2018-12-11T20:17:34.656Z,6.20
2018-12-11T20:18:13.063Z,7.10
2018-12-11T20:18:50.047Z,6.20
2018-12-11T20:19:26.837Z,6.27
2018-12-11T20:20:03.842Z,5.53
2018-12-11T20:20:40.715Z,5.90
2018-12-11T20:21:17.573Z,6.90
2018-12-11T20:21:54.333Z,6.60
2018-12-11T20:22:31.168Z,5.97
2018-12-11T20:23:07.986Z,7.43
2018-12-11T20:23:45.163Z,6.30
2018-12-11T20:24:21.960Z,6.70
2018-12-11T20:24:58.780Z,6.20
2018-12-11T20:25:35.644Z,6.33
2018-12-11T20:26:12.407Z,6.77
2018-12-11T20:26:50.440Z,5.83
2018-12-11T20:27:27.322Z,6.87
2018-12-11T20:28:04.136Z,7.17
2018-12-11T20:28:42.243Z,6.67
2018-12-11T20:29:19.958Z,7.43
2018-12-11T20:29:56.784Z,7.60
2018-12-11T20:30:34.427Z,7.90
2018-12-11T20:31:11.349Z,8.67
2018-12-11T20:31:48.226Z,8.83
2018-12-11T20:32:25.046Z,8.13
2018-12-11T20:33:01.976Z,7.40
2018-12-11T20:33:39.157Z,7.63
2018-12-11T20:34:15.985Z,8.57
2018-12-11T20:34:52.822Z,8.50
2018-12-11T20:35:29.852Z,8.67
2018-12-11T20:36:06.889Z,8.70
2018-12-11T20:36:44.025Z,8.80
2018-12-11T20:37:21.006Z,8.60
2018-12-11T20:37:57.864Z,8.03
2018-12-11T20:38:34.724Z,8.93
2018-12-11T20:39:11.634Z,7.70
2018-12-11T20:39:48.598Z,8.10
2018-12-11T20:40:25.640Z,7.30
2018-12-11T20:41:02.469Z,7.87
2018-12-11T20:41:39.383Z,7.70
2018-12-11T20:42:16.149Z,7.90
2018-12-11T20:42:53.083Z,8.00
2018-12-11T20:43:30.226Z,7.40
2018-12-11T20:44:07.164Z,8.00
2018-12-11T20:44:44.079Z,8.60
2018-12-11T20:45:21.190Z,7.83
2018-12-11T20:45:58.098Z,7.47
2018-12-11T20:46:34.950Z,8.40
2018-12-11T20:47:11.754Z,8.40
2018-12-11T20:47:48.652Z,8.00
2018-12-11T20:48:25.514Z,8.73
2018-12-11T20:49:02.379Z,8.57
2018-12-11T20:49:39.232Z,8.67
2018-12-11T20:50:16.329Z,9.60
2018-12-11T20:50:53.207Z,9.30
2018-12-11T20:51:30.079Z,9.00
2018-12-11T20:52:07.094Z,9.53
2018-12-11T20:52:43.920Z,9.83
2018-12-11T20:53:20.770Z,10.00
2018-12-11T20:53:57.700Z,9.63
2018-12-11T20:54:34.546Z,10.70
2018-12-11T20:55:11.404Z,10.43
2018-12-11T20:55:48.162Z,10.20
2018-12-11T20:56:24.991Z,9.40
2018-12-11T20:57:01.724Z,10.03
2018-12-11T20:57:38.735Z,8.40
2018-12-11T20:58:15.665Z,9.50
2018-12-11T20:58:52.673Z,10.40
2018-12-11T20:59:29.640Z,9.83
2018-12-11T21:00:07.067Z,9.97
2018-12-11T21:00:43.926Z,9.07
2018-12-11T21:01:20.673Z,10.60
2018-12-11T21:01:57.658Z,9.93
2018-12-11T21:02:34.501Z,10.80
2018-12-11T21:03:11.345Z,10.37
2018-12-11T21:03:48.410Z,10.13
2018-12-11T21:04:25.281Z,10.80
2018-12-11T21:05:02.307Z,10.37
2018-12-11T21:05:39.133Z,10.47
2018-12-11T21:06:15.900Z,10.07
2018-12-11T21:06:52.692Z,11.60
2018-12-11T21:07:29.488Z,10.27
2018-12-11T21:08:06.308Z,10.97
2018-12-11T21:08:43.445Z,11.60
2018-12-11T21:09:21.057Z,11.20
2018-12-11T21:09:57.885Z,10.87
2018-12-11T21:10:34.769Z,10.80
2018-12-11T21:11:11.535Z,10.37
2018-12-11T21:11:48.351Z,10.13
2018-12-11T21:12:25.224Z,9.43
2018-12-11T21:13:02.077Z,11.63
2018-12-11T21:13:38.976Z,10.93
2018-12-11T21:14:15.877Z,10.20
2018-12-11T21:14:52.748Z,9.63
2018-12-11T21:15:29.573Z,10.60
2018-12-11T21:16:10.964Z,10.93
2018-12-11T21:16:45.434Z,10.23
2018-12-11T21:17:22.344Z,10.77
2018-12-11T21:17:59.313Z,10.67
2018-12-11T21:18:36.182Z,9.97
2018-12-11T21:19:13.049Z,11.00
2018-12-11T21:19:49.943Z,11.30
2018-12-11T21:20:26.946Z,11.90
2018-12-11T21:21:03.745Z,12.47
2018-12-11T21:21:40.600Z,12.57
2018-12-11T21:22:18.280Z,12.67
2018-12-11T21:22:55.204Z,11.80
2018-12-11T21:23:31.971Z,11.70
2018-12-11T21:24:08.930Z,12.97
2018-12-11T21:24:45.764Z,11.90
2018-12-11T21:25:22.572Z,11.40
2018-12-11T21:25:59.508Z,11.60
2018-12-11T21:26:36.387Z,11.07
2018-12-11T21:27:13.426Z,10.00
2018-12-11T21:27:50.333Z,9.60
2018-12-11T21:28:27.249Z,9.50
2018-12-11T21:29:04.049Z,10.20
2018-12-11T21:29:40.874Z,8.77
2018-12-11T21:30:17.808Z,8.17
2018-12-11T21:30:54.878Z,7.60
2018-12-11T21:31:31.699Z,8.80
2018-12-11T21:32:08.534Z,8.20
2018-12-11T21:32:45.528Z,8.30
2018-12-11T21:33:23.344Z,9.03
2018-12-11T21:34:00.120Z,8.50
2018-12-11T21:34:37.036Z,8.33
2018-12-11T21:35:13.832Z,8.73
2018-12-11T21:35:50.609Z,8.60
2018-12-11T21:36:27.392Z,10.00
2018-12-11T21:37:05.471Z,8.43
2018-12-11T21:37:42.529Z,9.27
2018-12-11T21:38:19.301Z,8.60
2018-12-11T21:38:56.092Z,8.90
2018-12-11T21:39:33.093Z,9.40
2018-12-11T21:40:10.521Z,10.13
2018-12-11T21:40:47.324Z,10.70
2018-12-11T21:41:24.090Z,10.00
2018-12-11T21:42:01.912Z,11.37
2018-12-11T21:42:38.745Z,9.50
2018-12-11T21:43:15.601Z,10.17
2018-12-11T21:43:52.456Z,9.40
2018-12-11T21:44:29.321Z,9.70
2018-12-11T21:45:06.618Z,10.67
2018-12-11T21:45:43.547Z,10.13
2018-12-11T21:46:20.533Z,9.50
2018-12-11T21:46:58.367Z,8.23
2018-12-11T21:47:35.266Z,9.80
2018-12-11T21:48:12.212Z,9.10
2018-12-11T21:48:49.132Z,9.27
2018-12-11T21:49:25.904Z,9.17
2018-12-11T21:50:02.919Z,8.13
2018-12-11T21:50:39.756Z,8.13
2018-12-11T21:51:16.713Z,8.80
2018-12-11T21:51:53.485Z,8.77
2018-12-11T21:52:30.320Z,9.00
2018-12-11T21:53:07.129Z,8.20
2018-12-11T21:53:43.946Z,8.70
2018-12-11T21:54:20.774Z,8.37
2018-12-11T21:54:57.872Z,8.33
2018-12-11T21:55:34.761Z,9.20
2018-12-11T21:56:11.603Z,9.07
2018-12-11T21:56:48.565Z,8.87
2018-12-11T21:57:25.372Z,8.50
2018-12-11T21:58:02.201Z,9.10
2018-12-11T21:58:39.099Z,9.20
2018-12-11T21:59:15.991Z,8.60
2018-12-11T21:59:52.969Z,8.80
2018-12-11T22:00:29.870Z,8.37
2018-12-11T22:01:06.808Z,9.17
2018-12-11T22:01:43.635Z,8.10
2018-12-11T22:02:20.548Z,7.87
2018-12-11T22:02:57.350Z,8.33
2018-12-11T22:03:34.321Z,8.80
2018-12-11T22:04:11.131Z,9.07
2018-12-11T22:04:48.088Z,7.80
2018-12-11T22:05:24.767Z,8.80
2018-12-11T22:06:01.701Z,8.10
2018-12-11T22:06:38.647Z,7.40
2018-12-11T22:07:15.501Z,8.83
2018-12-11T22:07:52.327Z,8.17
2018-12-11T22:08:29.539Z,8.27
2018-12-11T22:09:09.216Z,8.17
2018-12-11T22:09:48.195Z,7.07